createdAt,value
2023-05-05T00:01:04.684Z,9.03
2023-05-05T00:03:35.916Z,8.96
2023-05-05T00:06:05.468Z,8.67
2023-05-05T00:08:35.335Z,9.03
2023-05-05T00:11:03.790Z,8.56
2023-05-05T00:13:32.398Z,8.72
2023-05-05T00:16:01.871Z,8.99
2023-05-05T00:18:30.438Z,8.87
2023-05-05T00:20:58.842Z,8.94
2023-05-05T00:23:27.592Z,8.90
2023-05-05T00:25:57.435Z,8.92
2023-05-05T00:28:25.885Z,8.85
2023-05-05T00:30:54.365Z,8.92
2023-05-05T00:33:22.787Z,8.95
2023-05-05T00:35:51.585Z,8.94
2023-05-05T00:38:20.001Z,8.96
2023-05-05T00:40:48.439Z,8.77
2023-05-05T00:43:18.389Z,8.76
2023-05-05T00:45:48.155Z,8.68
2023-05-05T00:48:19.128Z,8.67
2023-05-05T00:50:47.569Z,8.93
2023-05-05T00:53:16.065Z,8.80
2023-05-05T00:55:44.528Z,8.80
2023-05-05T00:58:13.395Z,8.85
2023-05-05T01:00:43.202Z,8.62
2023-05-05T01:03:12.949Z,8.85
2023-05-05T01:05:52.855Z,8.88
2023-05-05T01:08:37.254Z,8.76
2023-05-05T01:11:13.868Z,8.42
2023-05-05T01:13:53.248Z,8.48
2023-05-05T01:16:29.023Z,8.68
2023-05-05T01:19:09.023Z,8.57
2023-05-05T01:21:42.750Z,8.59
2023-05-05T01:24:42.632Z,8.57
2023-05-05T01:27:56.623Z,8.60
2023-05-05T01:31:07.075Z,8.60
2023-05-05T01:33:45.043Z,8.50
2023-05-05T01:36:22.932Z,8.44
2023-05-05T01:38:58.189Z,8.45
2023-05-05T01:41:31.954Z,8.70
2023-05-05T01:44:04.186Z,8.19
2023-05-05T01:46:35.574Z,8.17
2023-05-05T01:49:06.637Z,8.19
2023-05-05T01:51:36.412Z,8.43
2023-05-05T01:54:08.869Z,8.41
2023-05-05T01:56:40.444Z,8.32
2023-05-05T01:59:10.029Z,8.40
2023-05-05T02:01:44.768Z,8.25
2023-05-05T02:04:16.242Z,7.77
2023-05-05T02:06:46.060Z,7.92
2023-05-05T02:09:16.568Z,8.22
2023-05-05T02:11:45.242Z,8.08
2023-05-05T02:14:15.322Z,8.06
2023-05-05T02:16:44.807Z,8.08
2023-05-05T02:19:16.197Z,8.33
2023-05-05T02:21:44.905Z,7.84
2023-05-05T02:24:13.675Z,7.45
2023-05-05T02:26:44.471Z,7.47
2023-05-05T02:29:20.564Z,7.62
2023-05-05T02:31:53.429Z,8.00
2023-05-05T02:34:27.378Z,8.21
2023-05-05T02:36:59.885Z,8.26
2023-05-05T02:39:35.654Z,8.03
2023-05-05T02:42:06.585Z,8.07
2023-05-05T02:44:36.018Z,8.03
2023-05-05T02:47:05.117Z,8.25
2023-05-05T02:49:35.032Z,8.45
2023-05-05T02:52:03.534Z,8.33
2023-05-05T02:54:33.894Z,8.32
2023-05-05T02:57:02.868Z,8.23
2023-05-05T02:59:39.458Z,7.98
2023-05-05T03:02:19.848Z,8.13
2023-05-05T03:04:54.163Z,8.33
2023-05-05T03:07:27.879Z,8.40
2023-05-05T03:10:05.034Z,8.49
2023-05-05T03:12:41.279Z,8.02
2023-05-05T03:15:12.188Z,8.01
2023-05-05T03:17:42.814Z,8.48
2023-05-05T03:20:15.920Z,8.49
2023-05-05T03:22:44.403Z,8.58
2023-05-05T03:25:12.930Z,8.46
2023-05-05T03:27:42.081Z,8.32
2023-05-05T03:30:11.923Z,8.41
2023-05-05T03:32:41.031Z,8.43
2023-05-05T03:35:10.858Z,8.19
2023-05-05T03:37:40.800Z,8.41
2023-05-05T03:40:10.961Z,8.56
2023-05-05T03:42:39.445Z,8.31
2023-05-05T03:45:09.522Z,8.32
2023-05-05T03:47:38.192Z,8.57
2023-05-05T03:50:08.976Z,8.64
2023-05-05T03:52:37.580Z,8.40
2023-05-05T03:55:08.984Z,8.50
2023-05-05T03:57:37.441Z,8.58
2023-05-05T04:00:11.920Z,8.83
2023-05-05T04:02:40.485Z,8.83
2023-05-05T04:05:09.552Z,8.79
2023-05-05T04:07:38.084Z,8.51
2023-05-05T04:10:10.521Z,8.64
2023-05-05T04:12:39.162Z,8.77
2023-05-05T04:15:09.301Z,8.97
2023-05-05T04:17:38.046Z,8.97
2023-05-05T04:20:08.680Z,8.80
2023-05-05T04:22:37.316Z,8.72
2023-05-05T04:25:08.523Z,9.02
2023-05-05T04:27:37.043Z,9.06
2023-05-05T04:30:07.000Z,9.08
2023-05-05T04:32:35.738Z,9.08
2023-05-05T04:35:04.963Z,9.29
2023-05-05T04:37:33.534Z,9.16
2023-05-05T04:40:01.984Z,9.22
2023-05-05T04:42:31.824Z,9.28
2023-05-05T04:45:00.324Z,9.23
2023-05-05T04:47:28.836Z,9.31
2023-05-05T04:49:57.403Z,9.43
2023-05-05T04:52:25.868Z,9.45
2023-05-05T04:54:54.992Z,9.44
2023-05-05T04:57:23.557Z,9.60
2023-05-05T04:59:53.405Z,9.48
2023-05-05T05:02:22.055Z,9.52
2023-05-05T05:04:50.952Z,9.70
2023-05-05T05:07:19.407Z,9.74
2023-05-05T05:09:47.853Z,9.81
2023-05-05T05:12:16.289Z,9.58
2023-05-05T05:14:45.213Z,9.56
2023-05-05T05:17:15.111Z,9.59
2023-05-05T05:19:43.546Z,9.55
2023-05-05T05:22:12.019Z,9.66
2023-05-05T05:24:40.493Z,9.83
2023-05-05T05:27:10.324Z,9.76
2023-05-05T05:29:38.944Z,9.79
2023-05-05T05:32:07.561Z,9.77
2023-05-05T05:34:37.553Z,9.67
2023-05-05T05:37:06.053Z,9.69
2023-05-05T05:39:34.728Z,9.83
2023-05-05T05:42:03.929Z,10.04
2023-05-05T05:44:32.835Z,10.14
2023-05-05T05:47:01.981Z,10.21
2023-05-05T05:49:30.518Z,10.01
2023-05-05T05:52:00.368Z,10.23
2023-05-05T05:54:29.398Z,10.22
2023-05-05T05:56:57.836Z,10.21
2023-05-05T05:59:26.333Z,10.05
2023-05-05T06:01:54.980Z,10.14
2023-05-05T06:04:23.458Z,10.24
2023-05-05T06:06:53.270Z,10.26
2023-05-05T06:09:23.101Z,9.94
2023-05-05T06:11:51.573Z,9.96
2023-05-05T06:14:21.095Z,9.87
2023-05-05T06:16:49.587Z,9.78
2023-05-05T06:19:18.042Z,10.09
2023-05-05T06:21:46.520Z,10.28
2023-05-05T06:24:15.003Z,10.13
2023-05-05T06:26:44.958Z,10.01
2023-05-05T06:29:13.436Z,10.14
2023-05-05T06:31:42.193Z,10.21
2023-05-05T06:34:11.871Z,10.30
2023-05-05T06:36:40.434Z,10.39
2023-05-05T06:39:09.178Z,10.23
2023-05-05T06:41:37.708Z,10.29
2023-05-05T06:44:07.572Z,10.25
2023-05-05T06:46:36.892Z,10.18
2023-05-05T06:49:06.242Z,10.33
2023-05-05T06:51:34.740Z,10.37
2023-05-05T06:54:03.199Z,10.54
2023-05-05T06:56:32.319Z,10.60
2023-05-05T06:59:01.279Z,10.30
2023-05-05T07:01:31.139Z,10.41
2023-05-05T07:04:00.328Z,10.73
2023-05-05T07:06:28.923Z,10.86
2023-05-05T07:08:58.014Z,11.07
2023-05-05T07:11:28.665Z,11.37
2023-05-05T07:13:57.096Z,11.46
2023-05-05T07:16:27.070Z,11.52
2023-05-05T07:18:56.973Z,11.59
2023-05-05T07:21:25.521Z,11.69
2023-05-05T07:23:53.986Z,12.10
2023-05-05T07:26:22.665Z,12.27
2023-05-05T07:28:52.035Z,12.79
2023-05-05T07:31:22.006Z,13.36
2023-05-05T07:33:50.796Z,13.13
2023-05-05T07:36:20.774Z,12.75
2023-05-05T07:38:49.235Z,12.50
2023-05-05T07:41:18.521Z,12.58
2023-05-05T07:43:46.948Z,12.81
2023-05-05T07:46:15.471Z,13.01
2023-05-05T07:48:44.195Z,13.47
2023-05-05T07:51:13.027Z,13.38
2023-05-05T07:53:43.060Z,13.58
2023-05-05T07:56:11.538Z,13.75
2023-05-05T07:58:39.998Z,13.90
2023-05-05T08:01:11.022Z,13.93
2023-05-05T08:03:39.672Z,14.66
2023-05-05T08:06:10.560Z,14.74
2023-05-05T08:08:39.384Z,14.87
2023-05-05T08:11:09.427Z,15.16
2023-05-05T08:13:39.237Z,15.73
2023-05-05T08:16:08.771Z,15.94
2023-05-05T08:18:39.677Z,15.74
2023-05-05T08:21:10.044Z,14.98
2023-05-05T08:23:39.897Z,14.87
2023-05-05T08:26:10.260Z,15.08
2023-05-05T08:28:39.146Z,15.33
2023-05-05T08:31:08.691Z,15.69
2023-05-05T08:33:37.175Z,15.65
2023-05-05T08:36:08.669Z,15.55
2023-05-05T08:38:37.720Z,14.86
2023-05-05T08:41:09.277Z,14.61
2023-05-05T08:43:37.820Z,14.36
2023-05-05T08:46:08.413Z,14.39
2023-05-05T08:48:41.690Z,14.44
2023-05-05T08:51:13.094Z,14.39
2023-05-05T08:53:53.625Z,14.48
2023-05-05T08:56:23.803Z,14.74
2023-05-05T08:58:53.147Z,14.72
2023-05-05T09:01:23.990Z,14.69
2023-05-05T09:03:53.435Z,14.71
2023-05-05T09:06:25.022Z,14.58
2023-05-05T09:08:54.139Z,14.62
2023-05-05T09:11:24.733Z,14.82
2023-05-05T09:13:53.195Z,15.32
2023-05-05T09:16:22.075Z,15.85
2023-05-05T09:18:50.558Z,15.77
2023-05-05T09:21:24.739Z,16.03
2023-05-05T09:24:10.674Z,16.53
2023-05-05T09:26:43.025Z,16.79
2023-05-05T09:29:11.808Z,16.78
2023-05-05T09:31:40.281Z,16.95
2023-05-05T09:34:18.566Z,17.01
2023-05-05T09:36:49.108Z,17.24
2023-05-05T09:39:20.472Z,16.91
2023-05-05T09:41:50.398Z,17.51
2023-05-05T09:44:36.197Z,17.68
2023-05-05T09:47:07.333Z,18.26
2023-05-05T09:49:43.503Z,17.96
2023-05-05T09:52:16.808Z,17.56
2023-05-05T09:54:46.233Z,18.07
2023-05-05T09:57:30.420Z,17.86
2023-05-05T10:00:01.312Z,18.07
2023-05-05T10:02:34.740Z,17.80
2023-05-05T10:05:11.570Z,17.89
2023-05-05T10:07:41.809Z,18.09
2023-05-05T10:10:13.691Z,18.52
2023-05-05T10:12:44.113Z,18.40
2023-05-05T10:15:14.076Z,18.77
2023-05-05T10:18:05.357Z,19.04
2023-05-05T10:20:37.299Z,18.37
2023-05-05T10:23:09.562Z,18.41
2023-05-05T10:25:43.901Z,17.95
2023-05-05T10:28:23.748Z,17.75
2023-05-05T10:30:54.380Z,18.17
2023-05-05T10:33:32.507Z,18.16
2023-05-05T10:36:05.535Z,18.27
2023-05-05T10:38:34.803Z,18.64
2023-05-05T10:41:03.531Z,18.63
2023-05-05T10:43:33.379Z,18.17
2023-05-05T10:46:02.763Z,18.52
2023-05-05T10:48:39.607Z,18.30
2023-05-05T10:51:38.317Z,18.04
2023-05-05T10:54:15.534Z,18.07
2023-05-05T10:56:44.705Z,18.05
2023-05-05T10:59:43.576Z,17.56
2023-05-05T11:02:23.687Z,17.75
2023-05-05T11:05:17.781Z,17.49
2023-05-05T11:07:47.670Z,17.42
2023-05-05T11:10:17.947Z,17.27
2023-05-05T11:13:22.990Z,17.74
2023-05-05T11:15:54.423Z,17.41
2023-05-05T11:18:38.044Z,17.53
2023-05-05T11:21:16.669Z,17.33
2023-05-05T11:23:50.703Z,17.56
2023-05-05T11:26:52.449Z,17.64
2023-05-05T11:29:21.000Z,17.59
2023-05-05T11:32:12.866Z,17.69
2023-05-05T11:34:50.920Z,17.74
2023-05-05T11:37:24.066Z,17.60
2023-05-05T11:40:05.393Z,17.66
2023-05-05T11:42:34.260Z,17.29
2023-05-05T11:45:04.060Z,17.42
2023-05-05T11:47:34.481Z,17.21
2023-05-05T11:50:25.085Z,17.23
2023-05-05T11:52:53.622Z,17.11
2023-05-05T11:55:23.435Z,16.27
2023-05-05T11:57:52.395Z,16.13
2023-05-05T12:00:21.759Z,15.98
2023-05-05T12:02:59.255Z,15.87
2023-05-05T12:05:28.010Z,15.86
2023-05-05T12:08:00.127Z,15.59
2023-05-05T12:10:29.507Z,15.42
2023-05-05T12:12:58.246Z,15.39
2023-05-05T12:15:33.950Z,15.25
2023-05-05T12:18:05.962Z,15.55
2023-05-05T12:20:36.679Z,15.90
2023-05-05T12:23:05.702Z,15.89
2023-05-05T12:25:39.394Z,16.06
2023-05-05T12:28:09.649Z,16.03
2023-05-05T12:30:38.518Z,16.18
2023-05-05T12:33:09.650Z,16.12
2023-05-05T12:35:38.809Z,15.98
2023-05-05T12:38:07.356Z,16.04
2023-05-05T12:40:51.981Z,15.96
2023-05-05T12:43:32.173Z,16.09
2023-05-05T12:46:08.985Z,15.76
2023-05-05T12:48:40.424Z,15.85
2023-05-05T12:51:14.847Z,15.81
2023-05-05T12:53:43.649Z,15.83
2023-05-05T12:56:35.575Z,16.65
2023-05-05T12:59:05.766Z,16.95
2023-05-05T13:01:35.120Z,17.17
2023-05-05T13:04:15.427Z,17.80
2023-05-05T13:06:45.680Z,17.74
2023-05-05T13:09:24.852Z,17.60
2023-05-05T13:11:54.712Z,18.01
2023-05-05T13:14:23.825Z,18.25
2023-05-05T13:16:52.357Z,18.21
2023-05-05T13:19:23.752Z,17.87
2023-05-05T13:21:52.684Z,17.66
2023-05-05T13:24:28.625Z,18.36
2023-05-05T13:27:07.279Z,18.24
2023-05-05T13:29:36.236Z,18.48
2023-05-05T13:32:04.933Z,18.54
2023-05-05T13:34:35.120Z,18.52
2023-05-05T13:37:03.559Z,18.66
2023-05-05T13:39:32.008Z,18.21
2023-05-05T13:42:00.511Z,18.25
2023-05-05T13:44:28.998Z,17.87
2023-05-05T13:46:57.724Z,17.97
2023-05-05T13:49:27.033Z,17.87
2023-05-05T13:51:57.201Z,17.70
2023-05-05T13:54:26.118Z,17.69
2023-05-05T13:56:54.652Z,17.96
2023-05-05T13:59:23.111Z,18.56
2023-05-05T14:01:51.784Z,18.66
2023-05-05T14:04:20.371Z,18.44
2023-05-05T14:06:48.962Z,18.28
2023-05-05T14:09:19.045Z,18.05
2023-05-05T14:11:47.515Z,18.12
2023-05-05T14:14:16.336Z,18.42
2023-05-05T14:16:44.886Z,18.48
2023-05-05T14:19:13.416Z,18.36
2023-05-05T14:21:41.870Z,18.21
2023-05-05T14:24:10.676Z,18.07
2023-05-05T14:26:40.805Z,17.68
2023-05-05T14:29:09.316Z,17.74
2023-05-05T14:31:37.803Z,17.65
2023-05-05T14:34:06.712Z,17.42
2023-05-05T14:36:35.196Z,16.94
2023-05-05T14:39:03.759Z,16.51
2023-05-05T14:41:32.206Z,16.39
2023-05-05T14:44:02.293Z,16.33
2023-05-05T14:46:31.478Z,16.26
2023-05-05T14:49:00.168Z,15.89
2023-05-05T14:51:28.812Z,15.97
2023-05-05T14:53:57.269Z,15.53
2023-05-05T14:56:26.709Z,15.52
2023-05-05T14:58:55.491Z,15.38
2023-05-05T15:01:26.199Z,15.14
2023-05-05T15:03:55.039Z,14.99
2023-05-05T15:06:23.697Z,14.38
2023-05-05T15:08:52.164Z,14.36
2023-05-05T15:11:20.635Z,15.04
2023-05-05T15:13:49.098Z,14.78
2023-05-05T15:16:17.755Z,14.47
2023-05-05T15:18:47.978Z,13.85
2023-05-05T15:21:16.466Z,13.54
2023-05-05T15:23:45.011Z,12.94
2023-05-05T15:26:13.767Z,12.72
2023-05-05T15:28:42.354Z,12.59
2023-05-05T15:31:10.835Z,12.31
2023-05-05T15:33:39.893Z,11.99
2023-05-05T15:36:11.249Z,11.86
2023-05-05T15:38:43.571Z,12.05
2023-05-05T15:41:12.281Z,11.81
2023-05-05T15:43:40.775Z,12.15
2023-05-05T15:46:09.254Z,11.88
2023-05-05T15:48:37.790Z,11.75
2023-05-05T15:51:06.454Z,11.57
2023-05-05T15:53:36.500Z,11.68
2023-05-05T15:56:05.161Z,11.58
2023-05-05T15:58:33.859Z,11.58
2023-05-05T16:01:02.410Z,11.67
2023-05-05T16:03:31.454Z,11.71
2023-05-05T16:06:00.335Z,12.12
2023-05-05T16:08:29.303Z,11.95
2023-05-05T16:10:59.120Z,12.17
2023-05-05T16:13:27.927Z,12.83
2023-05-05T16:15:56.555Z,12.85
2023-05-05T16:18:25.013Z,12.70
2023-05-05T16:20:53.839Z,12.78
2023-05-05T16:23:22.658Z,13.05
2023-05-05T16:25:51.083Z,12.70
2023-05-05T16:28:21.144Z,12.84
2023-05-05T16:30:49.870Z,12.96
2023-05-05T16:33:18.338Z,13.07
2023-05-05T16:35:46.955Z,13.25
2023-05-05T16:38:16.047Z,13.23
2023-05-05T16:40:44.505Z,13.33
2023-05-05T16:43:12.958Z,13.24
2023-05-05T16:45:43.496Z,13.32
2023-05-05T16:48:13.788Z,13.46
2023-05-05T16:50:42.491Z,13.63
2023-05-05T16:53:10.967Z,13.56
2023-05-05T16:55:39.753Z,13.73
2023-05-05T16:58:08.220Z,13.79
2023-05-05T17:00:36.709Z,13.89
2023-05-05T17:03:06.586Z,13.92
2023-05-05T17:05:35.146Z,13.89
2023-05-05T17:08:04.211Z,13.78
2023-05-05T17:10:32.691Z,13.85
2023-05-05T17:13:01.416Z,13.98
2023-05-05T17:15:29.977Z,14.02
2023-05-05T17:17:58.474Z,13.93
2023-05-05T17:20:28.460Z,13.89
2023-05-05T17:22:56.928Z,13.67
2023-05-05T17:25:26.367Z,13.88
2023-05-05T17:27:54.938Z,13.83
2023-05-05T17:30:23.810Z,13.86
2023-05-05T17:32:52.561Z,13.73
2023-05-05T17:35:21.362Z,13.77
2023-05-05T17:37:51.231Z,13.69
2023-05-05T17:40:19.878Z,13.58
2023-05-05T17:42:48.352Z,13.55
2023-05-05T17:45:17.000Z,13.67
2023-05-05T17:47:45.776Z,13.35
2023-05-05T17:50:14.309Z,13.44
2023-05-05T17:52:44.646Z,13.47
2023-05-05T17:55:14.609Z,13.51
2023-05-05T17:57:43.074Z,13.30
2023-05-05T18:00:12.601Z,12.98
2023-05-05T18:02:41.236Z,13.06
2023-05-05T18:05:11.353Z,13.02
2023-05-05T18:07:39.987Z,12.99
2023-05-05T18:10:10.668Z,12.97
2023-05-05T18:12:40.574Z,12.82
2023-05-05T18:15:10.550Z,12.83
2023-05-05T18:17:40.387Z,12.59
2023-05-05T18:20:10.541Z,12.59
2023-05-05T18:22:39.016Z,12.54
2023-05-05T18:25:10.207Z,12.14
2023-05-05T18:27:41.693Z,12.13
2023-05-05T18:30:11.170Z,12.32
2023-05-05T18:32:40.246Z,11.68
2023-05-05T18:35:10.193Z,11.51
2023-05-05T18:37:39.530Z,11.39
2023-05-05T18:40:10.666Z,11.14
2023-05-05T18:42:40.530Z,11.06
2023-05-05T18:45:11.557Z,10.93
2023-05-05T18:47:41.516Z,10.85
2023-05-05T18:50:11.049Z,10.88
2023-05-05T18:52:39.513Z,11.04
2023-05-05T18:55:08.857Z,11.09
2023-05-05T18:57:38.939Z,10.83
2023-05-05T19:00:09.215Z,10.99
2023-05-05T19:02:37.953Z,10.93
2023-05-05T19:05:08.432Z,10.51
2023-05-05T19:07:37.333Z,10.48
2023-05-05T19:10:06.998Z,10.36
2023-05-05T19:12:35.953Z,10.26
2023-05-05T19:15:07.007Z,10.10
2023-05-05T19:17:36.062Z,10.13
2023-05-05T19:20:05.104Z,10.47
2023-05-05T19:22:33.568Z,10.23
2023-05-05T19:25:02.027Z,10.23
2023-05-05T19:27:33.848Z,10.30
2023-05-05T19:30:03.903Z,10.01
2023-05-05T19:32:33.863Z,10.08
2023-05-05T19:35:02.660Z,10.03
2023-05-05T19:37:31.543Z,9.72
2023-05-05T19:39:59.973Z,9.75
2023-05-05T19:42:28.700Z,9.78
2023-05-05T19:44:57.699Z,9.61
2023-05-05T19:47:26.189Z,9.67
2023-05-05T19:49:57.189Z,9.59
2023-05-05T19:52:26.766Z,9.56
2023-05-05T19:54:55.649Z,9.38
2023-05-05T19:57:24.142Z,9.34
2023-05-05T19:59:52.847Z,9.67
2023-05-05T20:02:22.055Z,9.78
2023-05-05T20:04:50.698Z,9.95
2023-05-05T20:07:20.877Z,10.00
2023-05-05T20:09:49.845Z,9.78
2023-05-05T20:12:19.898Z,9.45
2023-05-05T20:14:50.517Z,9.35
2023-05-05T20:17:20.340Z,9.47
2023-05-05T20:19:49.169Z,9.61
2023-05-05T20:22:20.717Z,9.68
2023-05-05T20:24:49.302Z,9.97
2023-05-05T20:27:17.840Z,9.73
2023-05-05T20:29:46.389Z,9.67
2023-05-05T20:32:15.194Z,9.85
2023-05-05T20:34:43.650Z,10.13
2023-05-05T20:37:13.748Z,10.13
2023-05-05T20:39:43.877Z,9.82
2023-05-05T20:42:12.338Z,10.04
2023-05-05T20:44:41.209Z,10.19
2023-05-05T20:47:09.792Z,10.25
2023-05-05T20:49:38.324Z,10.20
2023-05-05T20:52:06.957Z,9.96
2023-05-05T20:54:36.094Z,9.81
2023-05-05T20:57:06.933Z,9.65
2023-05-05T20:59:35.483Z,9.87
2023-05-05T21:02:03.963Z,9.73
2023-05-05T21:04:32.529Z,9.69
2023-05-05T21:07:02.093Z,9.62
2023-05-05T21:09:31.600Z,9.59
2023-05-05T21:12:00.173Z,9.82
2023-05-05T21:14:30.426Z,9.97
2023-05-05T21:16:59.014Z,9.78
2023-05-05T21:19:27.515Z,9.58
2023-05-05T21:21:59.301Z,9.89
2023-05-05T21:24:28.127Z,9.64
2023-05-05T21:26:57.377Z,9.81
2023-05-05T21:29:25.973Z,9.92
2023-05-05T21:31:55.909Z,9.49
2023-05-05T21:34:24.473Z,9.65
2023-05-05T21:36:53.000Z,9.58
2023-05-05T21:39:21.521Z,9.52
2023-05-05T21:41:50.006Z,9.58
2023-05-05T21:44:18.466Z,9.78
2023-05-05T21:46:48.140Z,9.71
2023-05-05T21:49:19.172Z,9.74
2023-05-05T21:51:48.302Z,9.91
2023-05-05T21:54:16.890Z,10.09
2023-05-05T21:56:46.040Z,10.03
2023-05-05T21:59:16.511Z,10.13
2023-05-05T22:01:45.670Z,9.96
2023-05-05T22:04:14.130Z,9.88
2023-05-05T22:06:44.243Z,9.97
2023-05-05T22:09:12.694Z,10.24
2023-05-05T22:11:41.306Z,10.08
2023-05-05T22:14:09.792Z,10.14
2023-05-05T22:16:38.478Z,9.89
2023-05-05T22:19:07.235Z,9.95
2023-05-05T22:21:36.065Z,9.96
2023-05-05T22:24:07.545Z,9.99
2023-05-05T22:26:37.014Z,10.00
2023-05-05T22:29:05.459Z,10.08
2023-05-05T22:31:33.960Z,10.02
2023-05-05T22:34:02.651Z,10.06
2023-05-05T22:36:31.242Z,9.89
2023-05-05T22:39:00.226Z,9.87
2023-05-05T22:41:30.071Z,9.95
2023-05-05T22:43:58.547Z,9.95
2023-05-05T22:46:27.095Z,9.87
2023-05-05T22:48:55.864Z,10.00
2023-05-05T22:51:24.487Z,9.92
2023-05-05T22:53:53.168Z,9.94
2023-05-05T22:56:21.919Z,9.93
2023-05-05T22:58:52.061Z,10.02
2023-05-05T23:01:20.587Z,10.14
2023-05-05T23:03:49.495Z,9.85
2023-05-05T23:06:18.416Z,9.87
2023-05-05T23:08:49.135Z,10.12
2023-05-05T23:11:17.821Z,10.08
2023-05-05T23:13:46.313Z,10.11
2023-05-05T23:16:16.332Z,10.27
2023-05-05T23:18:45.261Z,10.15
2023-05-05T23:21:13.780Z,10.17
2023-05-05T23:23:42.247Z,10.14
2023-05-05T23:26:10.996Z,10.18
2023-05-05T23:28:39.474Z,10.06
2023-05-05T23:31:08.364Z,10.17
2023-05-05T23:33:38.473Z,10.21
2023-05-05T23:36:07.890Z,10.12
2023-05-05T23:38:36.428Z,10.12
2023-05-05T23:41:05.231Z,10.15
2023-05-05T23:43:33.701Z,10.15
2023-05-05T23:46:02.185Z,9.98
2023-05-05T23:48:30.662Z,10.17
2023-05-05T23:51:00.495Z,9.96
2023-05-05T23:53:28.952Z,10.19
2023-05-05T23:55:57.691Z,10.02
2023-05-05T23:58:26.576Z,9.95
